Muir Army Air Field, PA

12:32 AM EST on March 02, 2015 (GMT -0500)
Muir Army Air Field | Change Station
CLOSE
Current Station
Airport
Location: Fort Indiantown Gap,
Elevation: 489 ft
Nearby Weather Stations

Elev 489 ft 40.43 °N, 76.57 °W | Updated 34 minutes ago

Overcast
Overcast
24 °F
Feels Like 24 °F
N
1
Wind Variable Wind from South

Today
High -- | Low -- °F
--% Chance of Precip.
Yesterday
High -- | Low -- °F
Precip. -- in
6:38 AM 5:58 PM
Waxing Gibbous, 89% visible
Pressure 30.17 in
Visibility 4.0 miles
Clouds Overcast 400 ft
Dew Point 23 °F
Humidity 94%
Rainfall 0.00 in
Snow Depth Not available.
UV 0 out of 12
Pollen .50 out of 12
Air Quality Not available.
Flu Activity Not available.
METAR KMUI 020458Z AUTO 18001KT 4SM BR OVC004 M04/M05 A3014 RMK AO2 SLP216 T10421050 410411138

More Conditions Fewer Conditions

Pressure 30.17 in
Visibility 4.0 miles
Clouds Overcast 400 ft
Dew Point 23 °F
Humidity 94%
Rainfall 0.00 in
Snow Depth Not available.
UV 0 out of 12
Pollen .50 out of 12
Air Quality Not available.
Flu Activity Not available.
METAR KMUI 020458Z AUTO 18001KT 4SM BR OVC004 M04/M05 A3014 RMK AO2 SLP216 T10421050 410411138

More Conditions Fewer Conditions

Nowcast | as of 11:00 PM EST on March 1, 2015

Patchy light snow and areas of freezing drizzle will slowly taper off overnight. Little additional accumulation is expected. Drivers should watch out for icy roads...as temperatures hover around the freezing mark.

×

10-Day Weather Forecast

Almanac

Astronomy

Mar. 02, 2015 Rise Set
Actual Time
Civil Twilight
Nautical Twilight
Astronomical Twilight
Moon
Length of Visible Light
Length of Day
Tomorrow will be .
, % of the Moon is Illuminated

Today's Extremes

State Highs State Lows

Community

WunderPhotos

Upload Photos

1,801,731 photos uploaded!

WunderBlogs® & News

Nearby

Air Quality

  Air Quality AQ Index Pollutant
Not available.

Snow Depth

Station Depth Elevation

Earthquake Activity

City Distance Mag. Time & Date
Minimum magnitude displayed is 2.5.

Coastal Water Temperatures

Place Temperature

Nearby Weather Stations